sensor_id;sensor_type;location;lat;lon;timestamp;P1;durP1;ratioP1;P2;durP2;ratioP2
40815;SDS011;26535;48.788;9.214;2023-07-29T00:01:42;3.90;;;1.85;;
40815;SDS011;26535;48.788;9.214;2023-07-29T00:04:08;4.18;;;1.75;;
40815;SDS011;26535;48.788;9.214;2023-07-29T00:06:34;4.30;;;1.73;;
40815;SDS011;26535;48.788;9.214;2023-07-29T00:09:00;5.72;;;1.70;;
40815;SDS011;26535;48.788;9.214;2023-07-29T00:11:27;3.33;;;1.58;;
40815;SDS011;26535;48.788;9.214;2023-07-29T00:13:52;3.67;;;1.73;;
40815;SDS011;26535;48.788;9.214;2023-07-29T00:16:18;4.30;;;2.05;;
40815;SDS011;26535;48.788;9.214;2023-07-29T00:18:47;3.65;;;1.63;;
40815;SDS011;26535;48.788;9.214;2023-07-29T00:21:13;3.05;;;1.65;;
40815;SDS011;26535;48.788;9.214;2023-07-29T00:23:42;3.22;;;1.45;;
40815;SDS011;26535;48.788;9.214;2023-07-29T00:28:33;5.97;;;4.00;;
40815;SDS011;26535;48.788;9.214;2023-07-29T06:11:31;4.95;;;2.05;;
40815;SDS011;26535;48.788;9.214;2023-07-29T06:13:57;5.80;;;2.10;;
40815;SDS011;26535;48.788;9.214;2023-07-29T06:16:23;4.78;;;1.58;;
40815;SDS011;26535;48.788;9.214;2023-07-29T06:18:49;5.20;;;1.80;;
40815;SDS011;26535;48.788;9.214;2023-07-29T06:21:17;3.90;;;1.58;;
40815;SDS011;26535;48.788;9.214;2023-07-29T06:23:45;2.38;;;1.40;;
40815;SDS011;26535;48.788;9.214;2023-07-29T06:26:11;2.17;;;1.15;;
40815;SDS011;26535;48.788;9.214;2023-07-29T06:28:37;3.55;;;1.30;;
40815;SDS011;26535;48.788;9.214;2023-07-29T06:31:02;3.88;;;1.48;;
40815;SDS011;26535;48.788;9.214;2023-07-29T06:33:28;4.00;;;1.50;;
40815;SDS011;26535;48.788;9.214;2023-07-29T06:35:54;5.07;;;1.65;;
40815;SDS011;26535;48.788;9.214;2023-07-29T06:38:19;5.28;;;1.98;;
40815;SDS011;26535;48.788;9.214;2023-07-29T06:40:50;3.10;;;1.50;;
40815;SDS011;26535;48.788;9.214;2023-07-29T06:43:16;6.15;;;1.67;;
40815;SDS011;26535;48.788;9.214;2023-07-29T06:45:42;5.25;;;1.52;;
40815;SDS011;26535;48.788;9.214;2023-07-29T06:48:08;3.75;;;1.90;;
40815;SDS011;26535;48.788;9.214;2023-07-29T06:50:34;5.00;;;1.80;;
40815;SDS011;26535;48.788;9.214;2023-07-29T06:52:59;5.28;;;1.83;;
40815;SDS011;26535;48.788;9.214;2023-07-29T06:55:25;3.88;;;1.88;;
40815;SDS011;26535;48.788;9.214;2023-07-29T06:57:51;4.40;;;1.63;;
40815;SDS011;26535;48.788;9.214;2023-07-29T07:00:17;4.22;;;1.80;;
40815;SDS011;26535;48.788;9.214;2023-07-29T07:02:42;5.35;;;1.92;;
40815;SDS011;26535;48.788;9.214;2023-07-29T07:05:08;5.40;;;1.98;;
40815;SDS011;26535;48.788;9.214;2023-07-29T07:07:34;5.47;;;1.90;;
40815;SDS011;26535;48.788;9.214;2023-07-29T07:10:00;2.90;;;1.63;;
40815;SDS011;26535;48.788;9.214;2023-07-29T07:12:25;5.32;;;1.70;;
40815;SDS011;26535;48.788;9.214;2023-07-29T07:14:51;4.53;;;2.08;;
40815;SDS011;26535;48.788;9.214;2023-07-29T07:17:17;3.97;;;1.83;;
40815;SDS011;26535;48.788;9.214;2023-07-29T07:19:43;3.60;;;1.80;;
40815;SDS011;26535;48.788;9.214;2023-07-29T07:22:09;3.15;;;1.30;;
40815;SDS011;26535;48.788;9.214;2023-07-29T07:24:34;3.03;;;1.33;;
40815;SDS011;26535;48.788;9.214;2023-07-29T07:27:00;4.07;;;1.48;;
40815;SDS011;26535;48.788;9.214;2023-07-29T07:29:27;2.35;;;1.17;;
40815;SDS011;26535;48.788;9.214;2023-07-29T07:31:53;2.60;;;1.13;;
40815;SDS011;26535;48.788;9.214;2023-07-29T07:34:21;2.55;;;0.90;;
40815;SDS011;26535;48.788;9.214;2023-07-29T07:36:47;2.00;;;0.80;;
40815;SDS011;26535;48.788;9.214;2023-07-29T07:39:13;3.80;;;1.00;;
40815;SDS011;26535;48.788;9.214;2023-07-29T07:41:41;1.55;;;0.70;;
40815;SDS011;26535;48.788;9.214;2023-07-29T07:44:08;3.83;;;0.90;;
40815;SDS011;26535;48.788;9.214;2023-07-29T07:46:34;2.28;;;1.10;;
40815;SDS011;26535;48.788;9.214;2023-07-29T07:48:59;2.88;;;1.02;;
40815;SDS011;26535;48.788;9.214;2023-07-29T07:51:25;3.75;;;1.27;;
40815;SDS011;26535;48.788;9.214;2023-07-29T07:53:51;3.28;;;1.08;;
40815;SDS011;26535;48.788;9.214;2023-07-29T07:56:16;2.90;;;1.15;;
40815;SDS011;26535;48.788;9.214;2023-07-29T07:58:42;2.17;;;1.08;;
40815;SDS011;26535;48.788;9.214;2023-07-29T08:01:08;3.13;;;1.15;;
40815;SDS011;26535;48.788;9.214;2023-07-29T08:03:35;2.13;;;1.10;;
40815;SDS011;26535;48.788;9.214;2023-07-29T08:06:04;2.92;;;1.02;;
40815;SDS011;26535;48.788;9.214;2023-07-29T08:08:29;2.90;;;1.00;;
40815;SDS011;26535;48.788;9.214;2023-07-29T08:10:56;1.85;;;0.98;;
40815;SDS011;26535;48.788;9.214;2023-07-29T08:13:22;1.63;;;0.70;;
40815;SDS011;26535;48.788;9.214;2023-07-29T08:15:52;3.33;;;1.15;;
40815;SDS011;26535;48.788;9.214;2023-07-29T08:18:18;1.70;;;0.80;;
40815;SDS011;26535;48.788;9.214;2023-07-29T08:20:54;1.95;;;0.60;;
40815;SDS011;26535;48.788;9.214;2023-07-29T08:23:25;1.83;;;0.60;;
40815;SDS011;26535;48.788;9.214;2023-07-29T08:28:33;1.40;;;0.50;;
40815;SDS011;26535;48.788;9.214;2023-07-29T08:31:02;2.80;;;1.00;;
40815;SDS011;26535;48.788;9.214;2023-07-29T08:33:31;3.42;;;0.60;;
40815;SDS011;26535;48.788;9.214;2023-07-29T08:35:58;1.48;;;0.70;;
40815;SDS011;26535;48.788;9.214;2023-07-29T08:38:24;3.13;;;0.80;;
40815;SDS011;26535;48.788;9.214;2023-07-29T08:40:55;1.38;;;0.55;;
40815;SDS011;26535;48.788;9.214;2023-07-29T08:43:29;2.05;;;0.60;;
40815;SDS011;26535;48.788;9.214;2023-07-29T08:45:56;2.05;;;0.80;;
40815;SDS011;26535;48.788;9.214;2023-07-29T08:48:23;1.35;;;0.60;;
40815;SDS011;26535;48.788;9.214;2023-07-29T08:51:04;1.70;;;0.82;;
40815;SDS011;26535;48.788;9.214;2023-07-29T08:53:32;2.53;;;0.60;;
40815;SDS011;26535;48.788;9.214;2023-07-29T08:56:02;1.92;;;0.68;;
40815;SDS011;26535;48.788;9.214;2023-07-29T08:58:28;2.38;;;0.80;;
40815;SDS011;26535;48.788;9.214;2023-07-29T09:00:54;1.65;;;0.82;;
40815;SDS011;26535;48.788;9.214;2023-07-29T09:03:20;3.72;;;0.50;;
40815;SDS011;26535;48.788;9.214;2023-07-29T09:05:46;1.23;;;0.55;;
40815;SDS011;26535;48.788;9.214;2023-07-29T09:08:13;2.67;;;0.90;;
40815;SDS011;26535;48.788;9.214;2023-07-29T09:10:39;2.03;;;0.70;;
40815;SDS011;26535;48.788;9.214;2023-07-29T09:13:04;1.20;;;0.52;;
40815;SDS011;26535;48.788;9.214;2023-07-29T09:15:33;1.25;;;0.65;;
40815;SDS011;26535;48.788;9.214;2023-07-29T09:18:17;1.85;;;0.85;;
40815;SDS011;26535;48.788;9.214;2023-07-29T09:20:47;1.83;;;0.70;;
40815;SDS011;26535;48.788;9.214;2023-07-29T09:23:14;1.73;;;0.73;;
40815;SDS011;26535;48.788;9.214;2023-07-29T09:25:40;1.77;;;0.65;;
40815;SDS011;26535;48.788;9.214;2023-07-29T09:28:15;2.30;;;0.60;;
40815;SDS011;26535;48.788;9.214;2023-07-29T09:30:42;2.70;;;0.90;;
40815;SDS011;26535;48.788;9.214;2023-07-29T09:35:38;3.85;;;1.00;;
40815;SDS011;26535;48.788;9.214;2023-07-29T09:38:04;2.00;;;0.60;;
40815;SDS011;26535;48.788;9.214;2023-07-29T09:40:37;2.22;;;1.00;;
40815;SDS011;26535;48.788;9.214;2023-07-29T09:43:04;2.38;;;0.90;;
40815;SDS011;26535;48.788;9.214;2023-07-29T09:45:32;1.50;;;0.60;;
40815;SDS011;26535;48.788;9.214;2023-07-29T09:48:00;2.78;;;1.00;;
40815;SDS011;26535;48.788;9.214;2023-07-29T09:50:26;2.08;;;0.73;;
40815;SDS011;26535;48.788;9.214;2023-07-29T09:52:56;1.70;;;0.63;;
40815;SDS011;26535;48.788;9.214;2023-07-29T09:55:28;1.80;;;0.80;;
40815;SDS011;26535;48.788;9.214;2023-07-29T09:57:57;2.15;;;0.82;;
40815;SDS011;26535;48.788;9.214;2023-07-29T10:00:29;2.45;;;1.02;;
40815;SDS011;26535;48.788;9.214;2023-07-29T10:02:56;1.63;;;0.63;;
40815;SDS011;26535;48.788;9.214;2023-07-29T10:05:25;2.08;;;0.80;;
40815;SDS011;26535;48.788;9.214;2023-07-29T10:07:54;1.67;;;0.60;;
40815;SDS011;26535;48.788;9.214;2023-07-29T10:10:24;2.00;;;0.80;;
40815;SDS011;26535;48.788;9.214;2023-07-29T10:12:55;1.45;;;0.70;;
40815;SDS011;26535;48.788;9.214;2023-07-29T10:15:21;2.28;;;0.85;;
40815;SDS011;26535;48.788;9.214;2023-07-29T10:17:47;3.30;;;1.00;;
40815;SDS011;26535;48.788;9.214;2023-07-29T10:20:16;2.45;;;1.02;;
40815;SDS011;26535;48.788;9.214;2023-07-29T10:22:43;1.60;;;0.80;;
40815;SDS011;26535;48.788;9.214;2023-07-29T10:25:24;1.90;;;0.80;;
40815;SDS011;26535;48.788;9.214;2023-07-29T10:27:57;1.70;;;0.80;;
40815;SDS011;26535;48.788;9.214;2023-07-29T10:30:29;2.35;;;0.90;;
40815;SDS011;26535;48.788;9.214;2023-07-29T10:32:57;1.95;;;0.85;;
40815;SDS011;26535;48.788;9.214;2023-07-29T10:35:26;1.65;;;0.93;;
40815;SDS011;26535;48.788;9.214;2023-07-29T10:37:52;2.00;;;1.10;;
40815;SDS011;26535;48.788;9.214;2023-07-29T10:40:18;2.58;;;0.70;;
40815;SDS011;26535;48.788;9.214;2023-07-29T10:45:26;2.97;;;0.73;;
40815;SDS011;26535;48.788;9.214;2023-07-29T10:47:51;1.30;;;0.60;;
40815;SDS011;26535;48.788;9.214;2023-07-29T10:50:21;1.30;;;0.43;;
40815;SDS011;26535;48.788;9.214;2023-07-29T10:52:50;1.75;;;0.80;;
40815;SDS011;26535;48.788;9.214;2023-07-29T10:55:31;1.40;;;0.70;;
40815;SDS011;26535;48.788;9.214;2023-07-29T10:58:08;1.08;;;0.50;;
40815;SDS011;26535;48.788;9.214;2023-07-29T11:00:45;1.48;;;0.60;;
40815;SDS011;26535;48.788;9.214;2023-07-29T11:03:12;1.73;;;0.70;;
40815;SDS011;26535;48.788;9.214;2023-07-29T11:11:12;1.67;;;0.80;;
40815;SDS011;26535;48.788;9.214;2023-07-29T11:13:45;2.35;;;0.70;;
40815;SDS011;26535;48.788;9.214;2023-07-29T11:16:11;1.60;;;0.90;;
40815;SDS011;26535;48.788;9.214;2023-07-29T11:18:42;1.25;;;0.50;;
40815;SDS011;26535;48.788;9.214;2023-07-29T11:23:36;1.85;;;0.70;;
40815;SDS011;26535;48.788;9.214;2023-07-29T11:26:02;1.83;;;0.80;;
40815;SDS011;26535;48.788;9.214;2023-07-29T11:28:29;2.33;;;0.90;;
40815;SDS011;26535;48.788;9.214;2023-07-29T11:30:55;1.83;;;0.77;;
40815;SDS011;26535;48.788;9.214;2023-07-29T11:33:23;1.85;;;0.80;;
40815;SDS011;26535;48.788;9.214;2023-07-29T11:35:50;1.52;;;0.70;;
40815;SDS011;26535;48.788;9.214;2023-07-29T11:38:17;2.67;;;0.60;;
40815;SDS011;26535;48.788;9.214;2023-07-29T11:40:53;1.88;;;0.70;;
40815;SDS011;26535;48.788;9.214;2023-07-29T11:43:23;1.75;;;0.75;;
40815;SDS011;26535;48.788;9.214;2023-07-29T11:45:49;1.65;;;0.63;;
40815;SDS011;26535;48.788;9.214;2023-07-29T11:48:17;2.90;;;0.80;;
40815;SDS011;26535;48.788;9.214;2023-07-29T11:50:43;1.65;;;0.90;;
40815;SDS011;26535;48.788;9.214;2023-07-29T11:53:10;1.73;;;0.65;;
40815;SDS011;26535;48.788;9.214;2023-07-29T11:55:37;1.85;;;0.75;;
40815;SDS011;26535;48.788;9.214;2023-07-29T11:58:03;3.10;;;0.77;;
40815;SDS011;26535;48.788;9.214;2023-07-29T12:00:29;1.50;;;0.60;;
40815;SDS011;26535;48.788;9.214;2023-07-29T12:02:56;2.08;;;0.70;;
40815;SDS011;26535;48.788;9.214;2023-07-29T12:05:25;1.85;;;0.70;;
40815;SDS011;26535;48.788;9.214;2023-07-29T12:07:51;1.70;;;0.73;;
40815;SDS011;26535;48.788;9.214;2023-07-29T12:10:17;1.35;;;0.63;;
40815;SDS011;26535;48.788;9.214;2023-07-29T12:12:47;1.85;;;0.93;;
40815;SDS011;26535;48.788;9.214;2023-07-29T12:15:24;1.65;;;0.95;;
40815;SDS011;26535;48.788;9.214;2023-07-29T12:17:52;1.30;;;0.60;;
40815;SDS011;26535;48.788;9.214;2023-07-29T12:20:20;2.17;;;0.70;;
40815;SDS011;26535;48.788;9.214;2023-07-29T12:22:51;1.35;;;0.60;;
40815;SDS011;26535;48.788;9.214;2023-07-29T12:25:18;1.92;;;0.93;;
40815;SDS011;26535;48.788;9.214;2023-07-29T12:27:43;1.75;;;0.52;;
40815;SDS011;26535;48.788;9.214;2023-07-29T12:30:09;1.63;;;0.73;;
40815;SDS011;26535;48.788;9.214;2023-07-29T12:32:45;1.80;;;0.82;;
40815;SDS011;26535;48.788;9.214;2023-07-29T12:35:12;2.75;;;0.98;;
40815;SDS011;26535;48.788;9.214;2023-07-29T12:37:38;2.08;;;0.70;;
40815;SDS011;26535;48.788;9.214;2023-07-29T12:40:07;2.25;;;0.90;;
40815;SDS011;26535;48.788;9.214;2023-07-29T12:42:54;1.83;;;0.82;;
40815;SDS011;26535;48.788;9.214;2023-07-29T12:45:26;1.52;;;0.88;;
40815;SDS011;26535;48.788;9.214;2023-07-29T12:47:52;2.35;;;0.80;;
40815;SDS011;26535;48.788;9.214;2023-07-29T12:50:18;1.67;;;0.98;;
40815;SDS011;26535;48.788;9.214;2023-07-29T12:52:44;1.73;;;0.73;;
40815;SDS011;26535;48.788;9.214;2023-07-29T12:55:10;2.20;;;0.77;;
40815;SDS011;26535;48.788;9.214;2023-07-29T12:57:39;2.05;;;0.85;;
40815;SDS011;26535;48.788;9.214;2023-07-29T13:00:06;1.98;;;0.90;;
40815;SDS011;26535;48.788;9.214;2023-07-29T13:02:34;1.92;;;0.90;;
40815;SDS011;26535;48.788;9.214;2023-07-29T13:04:59;1.75;;;0.85;;
40815;SDS011;26535;48.788;9.214;2023-07-29T13:07:25;1.40;;;0.73;;
40815;SDS011;26535;48.788;9.214;2023-07-29T13:09:51;2.72;;;0.80;;
40815;SDS011;26535;48.788;9.214;2023-07-29T13:12:16;1.40;;;0.80;;
40815;SDS011;26535;48.788;9.214;2023-07-29T13:14:42;1.80;;;0.80;;
40815;SDS011;26535;48.788;9.214;2023-07-29T13:17:08;2.22;;;1.15;;
40815;SDS011;26535;48.788;9.214;2023-07-29T13:19:33;1.70;;;0.90;;
40815;SDS011;26535;48.788;9.214;2023-07-29T13:21:59;2.55;;;0.80;;
40815;SDS011;26535;48.788;9.214;2023-07-29T13:24:27;1.70;;;0.90;;
40815;SDS011;26535;48.788;9.214;2023-07-29T13:26:53;1.50;;;0.90;;
40815;SDS011;26535;48.788;9.214;2023-07-29T13:29:18;1.40;;;0.68;;
40815;SDS011;26535;48.788;9.214;2023-07-29T13:31:44;2.90;;;1.10;;
40815;SDS011;26535;48.788;9.214;2023-07-29T13:34:10;2.03;;;1.10;;
40815;SDS011;26535;48.788;9.214;2023-07-29T13:36:36;3.35;;;1.13;;
40815;SDS011;26535;48.788;9.214;2023-07-29T13:39:01;1.92;;;0.98;;
40815;SDS011;26535;48.788;9.214;2023-07-29T13:41:27;1.55;;;0.82;;
40815;SDS011;26535;48.788;9.214;2023-07-29T13:43:53;1.80;;;1.00;;
40815;SDS011;26535;48.788;9.214;2023-07-29T13:46:21;2.17;;;1.00;;
40815;SDS011;26535;48.788;9.214;2023-07-29T13:48:47;1.80;;;0.95;;
40815;SDS011;26535;48.788;9.214;2023-07-29T13:51:13;2.60;;;0.90;;
40815;SDS011;26535;48.788;9.214;2023-07-29T13:53:38;1.40;;;0.73;;
40815;SDS011;26535;48.788;9.214;2023-07-29T13:56:10;2.63;;;1.00;;
40815;SDS011;26535;48.788;9.214;2023-07-29T13:58:36;1.98;;;0.93;;
40815;SDS011;26535;48.788;9.214;2023-07-29T14:01:01;2.00;;;1.00;;
40815;SDS011;26535;48.788;9.214;2023-07-29T14:03:33;3.10;;;1.20;;
40815;SDS011;26535;48.788;9.214;2023-07-29T14:05:59;2.83;;;0.90;;
40815;SDS011;26535;48.788;9.214;2023-07-29T14:08:24;3.50;;;1.00;;
40815;SDS011;26535;48.788;9.214;2023-07-29T14:10:50;1.65;;;0.80;;
40815;SDS011;26535;48.788;9.214;2023-07-29T14:13:16;1.80;;;1.08;;
40815;SDS011;26535;48.788;9.214;2023-07-29T14:15:44;2.25;;;1.08;;
40815;SDS011;26535;48.788;9.214;2023-07-29T14:18:11;1.83;;;0.90;;
40815;SDS011;26535;48.788;9.214;2023-07-29T14:20:37;1.60;;;0.80;;
40815;SDS011;26535;48.788;9.214;2023-07-29T14:23:02;1.75;;;1.00;;
40815;SDS011;26535;48.788;9.214;2023-07-29T14:25:28;2.60;;;0.90;;
40815;SDS011;26535;48.788;9.214;2023-07-29T14:27:54;2.17;;;0.90;;
40815;SDS011;26535;48.788;9.214;2023-07-29T14:30:20;2.28;;;0.80;;
40815;SDS011;26535;48.788;9.214;2023-07-29T14:32:46;2.08;;;0.73;;
40815;SDS011;26535;48.788;9.214;2023-07-29T14:35:13;2.30;;;1.10;;
40815;SDS011;26535;48.788;9.214;2023-07-29T14:37:39;1.67;;;0.90;;
40815;SDS011;26535;48.788;9.214;2023-07-29T14:40:04;2.47;;;1.20;;
40815;SDS011;26535;48.788;9.214;2023-07-29T14:42:31;2.60;;;1.10;;
40815;SDS011;26535;48.788;9.214;2023-07-29T14:44:56;2.25;;;1.10;;
40815;SDS011;26535;48.788;9.214;2023-07-29T14:47:22;1.80;;;0.90;;
40815;SDS011;26535;48.788;9.214;2023-07-29T14:49:48;2.20;;;1.08;;
40815;SDS011;26535;48.788;9.214;2023-07-29T14:52:14;1.95;;;0.95;;
40815;SDS011;26535;48.788;9.214;2023-07-29T14:54:39;3.13;;;1.08;;
40815;SDS011;26535;48.788;9.214;2023-07-29T14:57:09;2.80;;;1.08;;
40815;SDS011;26535;48.788;9.214;2023-07-29T14:59:35;2.50;;;1.10;;
40815;SDS011;26535;48.788;9.214;2023-07-29T15:02:01;2.53;;;1.00;;
40815;SDS011;26535;48.788;9.214;2023-07-29T15:04:26;4.28;;;1.25;;
40815;SDS011;26535;48.788;9.214;2023-07-29T15:06:52;2.45;;;1.40;;
40815;SDS011;26535;48.788;9.214;2023-07-29T15:09:18;2.58;;;1.00;;
40815;SDS011;26535;48.788;9.214;2023-07-29T15:11:43;2.60;;;1.23;;
40815;SDS011;26535;48.788;9.214;2023-07-29T15:14:09;2.33;;;0.90;;
40815;SDS011;26535;48.788;9.214;2023-07-29T15:16:36;2.70;;;0.90;;
40815;SDS011;26535;48.788;9.214;2023-07-29T15:19:04;1.92;;;1.02;;
40815;SDS011;26535;48.788;9.214;2023-07-29T15:21:29;2.53;;;1.00;;
40815;SDS011;26535;48.788;9.214;2023-07-29T15:23:55;2.10;;;0.93;;
40815;SDS011;26535;48.788;9.214;2023-07-29T15:26:21;1.88;;;1.10;;
40815;SDS011;26535;48.788;9.214;2023-07-29T15:28:47;2.00;;;0.77;;
40815;SDS011;26535;48.788;9.214;2023-07-29T15:31:12;2.40;;;1.27;;
40815;SDS011;26535;48.788;9.214;2023-07-29T15:33:38;1.30;;;0.68;;
40815;SDS011;26535;48.788;9.214;2023-07-29T15:36:04;3.03;;;1.23;;
40815;SDS011;26535;48.788;9.214;2023-07-29T15:38:30;1.70;;;0.98;;
40815;SDS011;26535;48.788;9.214;2023-07-29T15:40:56;2.95;;;1.13;;
40815;SDS011;26535;48.788;9.214;2023-07-29T15:43:22;1.70;;;1.10;;
40815;SDS011;26535;48.788;9.214;2023-07-29T15:45:48;2.35;;;1.10;;
40815;SDS011;26535;48.788;9.214;2023-07-29T15:48:14;4.00;;;1.08;;
40815;SDS011;26535;48.788;9.214;2023-07-29T15:50:41;2.50;;;1.00;;
40815;SDS011;26535;48.788;9.214;2023-07-29T15:53:07;2.20;;;1.00;;
40815;SDS011;26535;48.788;9.214;2023-07-29T15:55:33;5.68;;;1.10;;
40815;SDS011;26535;48.788;9.214;2023-07-29T15:57:59;2.30;;;1.17;;
40815;SDS011;26535;48.788;9.214;2023-07-29T16:00:24;1.88;;;0.93;;
40815;SDS011;26535;48.788;9.214;2023-07-29T16:02:50;1.98;;;0.90;;
40815;SDS011;26535;48.788;9.214;2023-07-29T16:05:16;2.25;;;1.00;;
40815;SDS011;26535;48.788;9.214;2023-07-29T16:07:42;2.95;;;1.15;;
40815;SDS011;26535;48.788;9.214;2023-07-29T16:10:08;2.88;;;1.30;;
40815;SDS011;26535;48.788;9.214;2023-07-29T16:12:34;2.38;;;1.23;;
40815;SDS011;26535;48.788;9.214;2023-07-29T16:15:03;3.58;;;1.27;;
40815;SDS011;26535;48.788;9.214;2023-07-29T16:17:30;4.47;;;1.20;;
40815;SDS011;26535;48.788;9.214;2023-07-29T16:19:57;1.75;;;1.10;;
40815;SDS011;26535;48.788;9.214;2023-07-29T16:22:25;1.67;;;1.02;;
40815;SDS011;26535;48.788;9.214;2023-07-29T16:24:51;2.58;;;1.40;;
40815;SDS011;26535;48.788;9.214;2023-07-29T16:27:17;2.35;;;1.30;;
40815;SDS011;26535;48.788;9.214;2023-07-29T16:29:43;2.47;;;0.93;;
40815;SDS011;26535;48.788;9.214;2023-07-29T16:32:09;2.00;;;1.20;;
40815;SDS011;26535;48.788;9.214;2023-07-29T16:34:38;1.90;;;1.05;;
40815;SDS011;26535;48.788;9.214;2023-07-29T16:37:07;1.98;;;1.00;;
40815;SDS011;26535;48.788;9.214;2023-07-29T16:39:33;1.85;;;0.90;;
40815;SDS011;26535;48.788;9.214;2023-07-29T16:42:00;2.40;;;0.80;;
40815;SDS011;26535;48.788;9.214;2023-07-29T16:44:26;2.15;;;1.15;;
40815;SDS011;26535;48.788;9.214;2023-07-29T16:46:51;1.70;;;1.00;;
40815;SDS011;26535;48.788;9.214;2023-07-29T16:49:17;1.38;;;0.77;;
40815;SDS011;26535;48.788;9.214;2023-07-29T16:51:43;3.00;;;1.13;;
40815;SDS011;26535;48.788;9.214;2023-07-29T16:54:10;1.88;;;1.00;;
40815;SDS011;26535;48.788;9.214;2023-07-29T16:56:36;3.55;;;1.38;;
40815;SDS011;26535;48.788;9.214;2023-07-29T16:59:01;2.15;;;0.90;;
40815;SDS011;26535;48.788;9.214;2023-07-29T17:01:27;1.70;;;0.90;;
40815;SDS011;26535;48.788;9.214;2023-07-29T17:03:53;2.42;;;1.00;;
40815;SDS011;26535;48.788;9.214;2023-07-29T17:06:18;2.10;;;1.10;;
40815;SDS011;26535;48.788;9.214;2023-07-29T17:08:44;2.78;;;1.10;;
40815;SDS011;26535;48.788;9.214;2023-07-29T17:11:10;5.30;;;1.38;;
40815;SDS011;26535;48.788;9.214;2023-07-29T17:13:35;3.85;;;1.13;;
40815;SDS011;26535;48.788;9.214;2023-07-29T17:16:01;2.22;;;1.10;;
40815;SDS011;26535;48.788;9.214;2023-07-29T17:18:27;3.47;;;1.40;;
40815;SDS011;26535;48.788;9.214;2023-07-29T17:20:52;2.58;;;1.40;;
40815;SDS011;26535;48.788;9.214;2023-07-29T17:23:18;1.90;;;1.13;;
40815;SDS011;26535;48.788;9.214;2023-07-29T17:25:44;2.40;;;1.15;;
40815;SDS011;26535;48.788;9.214;2023-07-29T17:28:10;2.70;;;1.40;;
40815;SDS011;26535;48.788;9.214;2023-07-29T17:30:35;2.85;;;1.40;;
40815;SDS011;26535;48.788;9.214;2023-07-29T17:33:02;2.15;;;1.00;;
40815;SDS011;26535;48.788;9.214;2023-07-29T17:35:28;2.78;;;0.65;;
40815;SDS011;26535;48.788;9.214;2023-07-29T17:37:54;1.52;;;0.63;;
40815;SDS011;26535;48.788;9.214;2023-07-29T17:40:20;2.13;;;0.60;;
40815;SDS011;26535;48.788;9.214;2023-07-29T17:42:46;2.05;;;0.60;;
40815;SDS011;26535;48.788;9.214;2023-07-29T17:45:11;3.22;;;0.65;;
40815;SDS011;26535;48.788;9.214;2023-07-29T17:47:40;3.70;;;0.63;;
40815;SDS011;26535;48.788;9.214;2023-07-29T17:52:31;2.28;;;0.75;;
40815;SDS011;26535;48.788;9.214;2023-07-29T17:54:58;3.28;;;0.95;;
40815;SDS011;26535;48.788;9.214;2023-07-29T17:57:26;2.55;;;1.05;;
40815;SDS011;26535;48.788;9.214;2023-07-29T17:59:52;3.53;;;1.10;;
40815;SDS011;26535;48.788;9.214;2023-07-29T18:02:18;2.30;;;1.20;;
40815;SDS011;26535;48.788;9.214;2023-07-29T18:04:43;2.90;;;1.30;;
40815;SDS011;26535;48.788;9.214;2023-07-29T18:07:17;2.75;;;1.00;;
40815;SDS011;26535;48.788;9.214;2023-07-29T18:09:43;2.42;;;1.17;;
40815;SDS011;26535;48.788;9.214;2023-07-29T18:12:09;3.60;;;1.10;;
40815;SDS011;26535;48.788;9.214;2023-07-29T18:14:34;2.65;;;1.30;;
40815;SDS011;26535;48.788;9.214;2023-07-29T18:17:00;3.10;;;1.20;;
40815;SDS011;26535;48.788;9.214;2023-07-29T18:19:26;3.15;;;1.27;;
40815;SDS011;26535;48.788;9.214;2023-07-29T18:21:58;3.25;;;1.10;;
40815;SDS011;26535;48.788;9.214;2023-07-29T18:24:24;2.22;;;1.08;;
40815;SDS011;26535;48.788;9.214;2023-07-29T18:26:50;2.92;;;1.17;;
40815;SDS011;26535;48.788;9.214;2023-07-29T18:29:16;1.98;;;0.85;;
40815;SDS011;26535;48.788;9.214;2023-07-29T18:31:42;2.95;;;1.00;;
40815;SDS011;26535;48.788;9.214;2023-07-29T18:34:08;6.72;;;1.67;;
40815;SDS011;26535;48.788;9.214;2023-07-29T18:36:34;2.55;;;1.10;;
40815;SDS011;26535;48.788;9.214;2023-07-29T18:38:59;2.63;;;0.93;;
40815;SDS011;26535;48.788;9.214;2023-07-29T18:41:25;3.53;;;1.00;;
40815;SDS011;26535;48.788;9.214;2023-07-29T18:43:52;2.05;;;1.10;;
40815;SDS011;26535;48.788;9.214;2023-07-29T18:46:22;5.20;;;1.70;;
40815;SDS011;26535;48.788;9.214;2023-07-29T18:48:53;3.17;;;1.50;;
40815;SDS011;26535;48.788;9.214;2023-07-29T18:51:20;2.93;;;1.30;;
40815;SDS011;26535;48.788;9.214;2023-07-29T18:53:46;2.65;;;1.50;;
40815;SDS011;26535;48.788;9.214;2023-07-29T18:56:12;2.78;;;1.55;;
40815;SDS011;26535;48.788;9.214;2023-07-29T18:58:38;2.85;;;1.50;;
40815;SDS011;26535;48.788;9.214;2023-07-29T19:01:04;2.70;;;1.30;;
40815;SDS011;26535;48.788;9.214;2023-07-29T19:03:30;2.65;;;1.48;;
40815;SDS011;26535;48.788;9.214;2023-07-29T19:05:56;6.15;;;1.50;;
40815;SDS011;26535;48.788;9.214;2023-07-29T19:08:31;4.32;;;1.73;;
40815;SDS011;26535;48.788;9.214;2023-07-29T19:10:57;2.90;;;1.70;;
40815;SDS011;26535;48.788;9.214;2023-07-29T19:13:22;3.70;;;1.80;;
40815;SDS011;26535;48.788;9.214;2023-07-29T19:15:51;4.18;;;1.70;;
40815;SDS011;26535;48.788;9.214;2023-07-29T19:18:19;2.80;;;1.73;;
40815;SDS011;26535;48.788;9.214;2023-07-29T19:20:52;4.03;;;2.10;;
40815;SDS011;26535;48.788;9.214;2023-07-29T19:23:21;4.75;;;2.47;;
40815;SDS011;26535;48.788;9.214;2023-07-29T19:25:47;4.50;;;2.08;;
40815;SDS011;26535;48.788;9.214;2023-07-29T19:28:14;3.58;;;2.10;;
40815;SDS011;26535;48.788;9.214;2023-07-29T19:30:43;2.95;;;1.90;;
40815;SDS011;26535;48.788;9.214;2023-07-29T19:33:09;4.75;;;2.20;;
40815;SDS011;26535;48.788;9.214;2023-07-29T19:35:35;3.17;;;1.90;;
40815;SDS011;26535;48.788;9.214;2023-07-29T19:38:01;4.40;;;2.00;;
40815;SDS011;26535;48.788;9.214;2023-07-29T19:40:27;3.75;;;1.90;;
40815;SDS011;26535;48.788;9.214;2023-07-29T19:42:53;4.10;;;2.08;;
40815;SDS011;26535;48.788;9.214;2023-07-29T19:45:23;3.85;;;2.20;;
40815;SDS011;26535;48.788;9.214;2023-07-29T19:47:49;3.65;;;2.10;;
40815;SDS011;26535;48.788;9.214;2023-07-29T19:50:15;4.10;;;2.50;;
40815;SDS011;26535;48.788;9.214;2023-07-29T19:52:40;3.53;;;2.10;;
40815;SDS011;26535;48.788;9.214;2023-07-29T19:55:06;4.35;;;2.17;;
40815;SDS011;26535;48.788;9.214;2023-07-29T19:57:33;3.90;;;2.15;;
40815;SDS011;26535;48.788;9.214;2023-07-29T20:00:01;3.08;;;1.98;;
40815;SDS011;26535;48.788;9.214;2023-07-29T20:02:30;4.22;;;2.20;;
40815;SDS011;26535;48.788;9.214;2023-07-29T20:04:56;3.53;;;2.00;;
40815;SDS011;26535;48.788;9.214;2023-07-29T20:07:22;3.28;;;1.95;;
40815;SDS011;26535;48.788;9.214;2023-07-29T20:09:48;3.72;;;2.13;;
40815;SDS011;26535;48.788;9.214;2023-07-29T20:12:14;4.00;;;2.40;;
40815;SDS011;26535;48.788;9.214;2023-07-29T20:14:40;3.20;;;2.00;;
40815;SDS011;26535;48.788;9.214;2023-07-29T20:17:05;6.22;;;2.92;;
40815;SDS011;26535;48.788;9.214;2023-07-29T20:19:31;4.95;;;3.13;;
40815;SDS011;26535;48.788;9.214;2023-07-29T20:21:57;5.90;;;2.95;;
40815;SDS011;26535;48.788;9.214;2023-07-29T20:24:22;3.28;;;2.20;;
40815;SDS011;26535;48.788;9.214;2023-07-29T20:29:16;3.15;;;2.13;;
40815;SDS011;26535;48.788;9.214;2023-07-29T20:31:45;5.32;;;2.40;;
40815;SDS011;26535;48.788;9.214;2023-07-29T20:36:36;4.40;;;2.47;;
40815;SDS011;26535;48.788;9.214;2023-07-29T20:39:02;3.13;;;1.90;;
40815;SDS011;26535;48.788;9.214;2023-07-29T20:41:28;3.72;;;2.20;;
40815;SDS011;26535;48.788;9.214;2023-07-29T20:43:57;4.55;;;2.83;;
40815;SDS011;26535;48.788;9.214;2023-07-29T20:46:23;4.95;;;2.70;;
40815;SDS011;26535;48.788;9.214;2023-07-29T20:48:52;3.47;;;2.35;;
40815;SDS011;26535;48.788;9.214;2023-07-29T20:51:18;4.60;;;2.33;;
40815;SDS011;26535;48.788;9.214;2023-07-29T20:53:47;3.80;;;2.42;;